Terminal Aerodrome Forecast
Issued by NWS Cleveland, OH

Home | Current Version | Previous Version | Graphics & Text | Print | Product List | Glossary On
Versions: 1 2 3 4 5 6 7 8 9 10 11 12 13 14 15 16 17 18 19 20 21
000
FTUS41 KCLE 202300
TAFERI
TAF
KERI 202340Z 2100/2124 19010G18KT P6SM -SHRA SCT025 OVC035
      TEMPO 2101/2105 3SM -SHRA SCT012 OVC025
     FM210500 28008KT 4SM -SHRA BR SCT008 OVC012
     FM211700 32012KT 6SM BR VCSH OVC015=

USA.gov is the U.S. government's official web portal to all federal, state and local government web resources and services.